Time;durP1;ratioP1;P1;durP2;ratioP2;P2;SDS_P1;SDS_P2;PMS_P1;PMS_P2;Temp;Humidity;BMP_temperature;BMP_pressure;BME280_temperature;BME280_humidity;BME280_pressure;Samples;Min_cycle;Max_cycle;Signal;HPM_P1;HPM_P2
2022/08/29 00:02:17;;;;;;;2.33;2.00;;;16.90;99.90;;;;;;5107723;28;20453;-62
2022/08/29 00:04:44;;;;;;;9.23;2.50;;;16.90;99.90;;;;;;5108680;28;20504;-53
2022/08/29 00:07:12;;;;;;;4.13;2.03;;;16.90;99.90;;;;;;5108218;28;20462;-57
2022/08/29 00:09:39;;;;;;;4.50;2.53;;;16.80;99.90;;;;;;5108412;28;20544;-59
2022/08/29 00:12:06;;;;;;;7.90;5.57;;;16.80;99.90;;;;;;5108643;28;20489;-63
2022/08/29 00:14:33;;;;;;;8.20;2.67;;;16.80;99.90;;;;;;5108331;28;20450;-57
2022/08/29 00:17:00;;;;;;;3.20;2.33;;;16.70;99.90;;;;;;5108567;28;20468;-54
2022/08/29 00:19:29;;;;;;;9.60;2.73;;;16.60;99.90;;;;;;5108501;28;20442;-57
2022/08/29 00:21:55;;;;;;;5.23;2.80;;;16.60;99.90;;;;;;5108901;28;20430;-57
2022/08/29 00:24:22;;;;;;;5.37;2.20;;;16.60;99.90;;;;;;5108653;28;20561;-62
2022/08/29 00:26:49;;;;;;;6.50;2.50;;;16.60;99.90;;;;;;5107968;28;20422;-55
2022/08/29 00:29:16;;;;;;;10.63;2.63;;;16.60;99.90;;;;;;5108596;28;20484;-64
2022/08/29 00:31:43;;;;;;;4.93;2.33;;;16.50;99.90;;;;;;5108710;28;20481;-62
2022/08/29 00:34:10;;;;;;;4.90;3.30;;;16.50;99.90;;;;;;5109088;28;20437;-55
2022/08/29 00:36:38;;;;;;;4.30;2.70;;;16.50;99.90;;;;;;5109012;28;20444;-61
2022/08/29 00:39:05;;;;;;;7.43;3.27;;;16.50;99.90;;;;;;5108917;28;20536;-56
2022/08/29 00:41:32;;;;;;;2.97;1.93;;;16.50;99.90;;;;;;5109041;28;20443;-56
2022/08/29 00:43:59;;;;;;;3.47;2.30;;;16.50;99.90;;;;;;5109581;28;20473;-62
2022/08/29 00:47:09;;;;;;;5.80;2.60;;;16.50;99.90;;;;;;5109327;28;20736;-58
2022/08/29 00:49:39;;;;;;;6.43;2.20;;;16.40;99.90;;;;;;5109140;28;20473;-58
2022/08/29 00:52:13;;;;;;;4.83;2.57;;;16.40;99.90;;;;;;5109176;28;20485;-56
2022/08/29 00:54:43;;;;;;;8.73;2.80;;;16.40;99.90;;;;;;5109341;28;20527;-62
2022/08/29 00:57:10;;;;;;;6.20;2.70;;;16.40;99.90;;;;;;5108575;28;20532;-62
2022/08/29 00:59:39;;;;;;;5.80;2.67;;;16.40;99.90;;;;;;5109325;28;20508;-56
2022/08/29 01:02:10;;;;;;;5.27;2.80;;;16.40;99.90;;;;;;5109322;28;20434;-61
2022/08/29 01:04:38;;;;;;;3.70;2.40;;;16.40;99.90;;;;;;5109282;28;20959;-59
2022/08/29 01:07:07;;;;;;;5.80;2.90;;;16.30;99.90;;;;;;5110547;28;20437;-59
2022/08/29 01:09:36;;;;;;;9.03;2.83;;;16.30;99.90;;;;;;5108839;28;20521;-56
2022/08/29 01:12:14;;;;;;;4.13;2.10;;;16.30;99.90;;;;;;5109031;28;20489;-62
2022/08/29 01:14:46;;;;;;;4.37;3.03;;;16.30;99.90;;;;;;5110689;28;20449;-62
2022/08/29 01:17:18;;;;;;;4.00;2.20;;;16.30;99.90;;;;;;5109925;28;20466;-53
2022/08/29 01:19:57;;;;;;;4.33;2.60;;;16.20;99.90;;;;;;5109246;28;20425;-62
2022/08/29 01:22:43;;;;;;;4.97;2.60;;;16.10;99.90;;;;;;5108878;28;20493;-62
2022/08/29 01:25:15;;;;;;;5.20;2.50;;;16.10;99.90;;;;;;5109943;28;20500;-62
2022/08/29 01:27:46;;;;;;;5.70;2.33;;;16.10;99.90;;;;;;5110348;28;20429;-61
2022/08/29 01:30:14;;;;;;;7.27;2.97;;;16.10;99.90;;;;;;5109604;28;20510;-62
2022/08/29 01:32:41;;;;;;;2.60;2.30;;;16.10;99.90;;;;;;5109781;28;20473;-59
2022/08/29 01:35:08;;;;;;;3.50;2.13;;;16.00;99.90;;;;;;5109576;28;20521;-62
2022/08/29 01:37:38;;;;;;;7.30;2.77;;;16.10;99.90;;;;;;5109470;28;20465;-59
2022/08/29 01:40:05;;;;;;;3.77;2.30;;;16.00;99.90;;;;;;5109812;28;20441;-54
2022/08/29 01:42:35;;;;;;;4.27;2.40;;;16.00;99.90;;;;;;5109642;28;20524;-60
2022/08/29 01:45:02;;;;;;;10.50;5.10;;;16.00;99.90;;;;;;5110686;28;20488;-62
2022/08/29 01:47:33;;;;;;;4.97;3.03;;;15.90;99.90;;;;;;5110049;28;20441;-58
2022/08/29 01:50:00;;;;;;;4.83;3.20;;;15.90;99.90;;;;;;5110018;28;20475;-58
2022/08/29 01:52:27;;;;;;;5.70;2.70;;;15.90;99.90;;;;;;5109959;28;20527;-60
2022/08/29 01:54:54;;;;;;;7.50;2.63;;;15.90;99.90;;;;;;5109581;28;20455;-62
2022/08/29 01:57:23;;;;;;;5.67;2.70;;;15.90;99.90;;;;;;5109444;28;20465;-53
2022/08/29 01:59:54;;;;;;;3.77;2.97;;;15.80;99.90;;;;;;5109735;28;20437;-51
2022/08/29 02:02:27;;;;;;;6.37;2.47;;;15.80;99.90;;;;;;5109645;28;20461;-58
2022/08/29 02:04:57;;;;;;;7.33;2.67;;;15.70;99.90;;;;;;5109784;28;20426;-58
2022/08/29 02:07:25;;;;;;;4.57;2.40;;;15.70;99.90;;;;;;5109663;28;20437;-61
2022/08/29 02:10:18;;;;;;;12.03;2.83;;;15.60;99.90;;;;;;5111589;28;20465;-52
2022/08/29 02:12:45;;;;;;;3.03;2.60;;;15.60;99.90;;;;;;5109122;28;20999;-51
2022/08/29 02:15:14;;;;;;;4.63;2.80;;;15.60;99.90;;;;;;5113749;28;20514;-51
2022/08/29 02:17:41;;;;;;;2.97;2.10;;;15.60;99.90;;;;;;5113643;28;20488;-59
2022/08/29 02:20:09;;;;;;;4.40;2.40;;;15.50;99.90;;;;;;5113099;28;20472;-57
2022/08/29 02:22:37;;;;;;;6.03;2.90;;;15.50;99.90;;;;;;5113781;28;20894;-61
2022/08/29 02:25:40;;;;;;;5.90;2.50;;;15.50;99.90;;;;;;5113740;28;20483;-54
2022/08/29 02:27:54;;;;;;;6.33;3.10;;;15.50;99.90;;;;;;5114253;28;20446;-57
2022/08/29 02:30:24;;;;;;;5.07;2.90;;;15.40;99.90;;;;;;5113335;28;20479;-56
2022/08/29 02:32:51;;;;;;;6.50;2.73;;;15.50;99.90;;;;;;5113611;28;20477;-60
2022/08/29 02:35:18;;;;;;;6.53;2.63;;;15.50;99.90;;;;;;5114002;28;20513;-59
2022/08/29 02:37:45;;;;;;;5.70;2.90;;;15.40;99.90;;;;;;5113255;28;20445;-60
2022/08/29 02:40:17;;;;;;;5.40;2.83;;;15.40;99.90;;;;;;5113655;28;20453;-53
2022/08/29 02:42:49;;;;;;;6.90;2.63;;;15.40;99.90;;;;;;5113747;28;20461;-60
2022/08/29 02:45:23;;;;;;;4.40;2.77;;;15.40;99.90;;;;;;5114888;28;20406;-49
2022/08/29 02:47:52;;;;;;;4.77;3.50;;;15.50;99.90;;;;;;5118242;28;20432;-62
2022/08/29 02:50:20;;;;;;;4.70;2.87;;;15.40;99.90;;;;;;5117295;28;20516;-48
2022/08/29 02:52:47;;;;;;;6.10;3.00;;;15.40;99.90;;;;;;5116636;28;20589;-58
2022/08/29 02:55:16;;;;;;;6.60;2.60;;;15.40;99.90;;;;;;5117306;28;20437;-59
2022/08/29 02:57:44;;;;;;;4.90;2.20;;;15.40;99.90;;;;;;5117114;28;20497;-56
2022/08/29 03:00:15;;;;;;;10.17;2.80;;;15.50;99.90;;;;;;5116946;28;20476;-58
2022/08/29 03:02:42;;;;;;;6.13;3.30;;;15.40;99.90;;;;;;5118099;28;20486;-54
2022/08/29 03:05:10;;;;;;;6.47;2.70;;;15.40;99.90;;;;;;5117675;28;20464;-58
2022/08/29 03:07:37;;;;;;;4.40;2.03;;;15.40;99.90;;;;;;5116141;28;20493;-57
2022/08/29 03:10:05;;;;;;;4.87;3.17;;;15.40;99.90;;;;;;5116201;28;20481;-55
2022/08/29 03:12:54;;;;;;;4.47;2.80;;;15.30;99.90;;;;;;5115923;28;20473;-51
2022/08/29 03:15:24;;;;;;;7.27;2.87;;;15.30;99.90;;;;;;5069979;28;20520;-56
2022/08/29 03:18:03;;;;;;;5.87;2.57;;;15.30;99.90;;;;;;5115895;28;20513;-55
2022/08/29 03:20:34;;;;;;;5.50;2.97;;;15.30;99.90;;;;;;5115800;28;20452;-54
2022/08/29 03:23:01;;;;;;;4.17;2.17;;;15.30;99.90;;;;;;5116230;28;20458;-54
2022/08/29 03:25:28;;;;;;;7.30;3.10;;;15.20;99.90;;;;;;5116173;28;20668;-43
2022/08/29 03:27:58;;;;;;;6.20;2.63;;;15.30;99.90;;;;;;5116260;28;20466;-49
2022/08/29 03:30:26;;;;;;;6.63;3.10;;;15.20;99.90;;;;;;5115403;28;20469;-60
2022/08/29 03:32:53;;;;;;;7.37;2.57;;;15.30;99.90;;;;;;5115871;28;20489;-61
2022/08/29 03:35:21;;;;;;;4.70;2.70;;;15.20;99.90;;;;;;5116079;28;20441;-50
2022/08/29 03:37:50;;;;;;;4.43;2.87;;;15.10;99.90;;;;;;5116473;28;20461;-44
2022/08/29 03:40:17;;;;;;;7.40;4.37;;;15.10;99.90;;;;;;5115709;28;20513;-59
2022/08/29 03:43:20;;;;;;;;;;;;;;;;;;;;;
2022/08/29 03:46:20;;;;;;;9.27;3.20;;;15.10;99.90;;;;;;5066009;28;20477;-60
2022/08/29 03:48:47;;;;;;;4.97;2.93;;;15.10;99.90;;;;;;5116717;28;20473;-48
2022/08/29 03:51:14;;;;;;;5.40;2.57;;;15.00;99.90;;;;;;5116593;28;20461;-55
2022/08/29 03:53:42;;;;;;;7.70;3.10;;;15.10;99.90;;;;;;5116510;28;20585;-59
2022/08/29 03:56:10;;;;;;;12.40;2.90;;;15.00;99.90;;;;;;5115533;28;20472;-56
2022/08/29 03:58:38;;;;;;;4.90;3.00;;;15.00;99.90;;;;;;5115509;28;20501;-50
2022/08/29 04:01:05;;;;;;;4.80;2.80;;;14.90;99.90;;;;;;5115702;28;20510;-52
2022/08/29 04:03:33;;;;;;;7.40;3.40;;;14.90;99.90;;;;;;5115902;28;20425;-53
2022/08/29 04:06:02;;;;;;;9.00;2.90;;;14.90;99.90;;;;;;5116134;28;20453;-50
2022/08/29 04:08:29;;;;;;;4.33;2.73;;;14.90;99.90;;;;;;5115782;28;20464;-49
2022/08/29 04:10:57;;;;;;;4.50;3.00;;;14.90;99.90;;;;;;5115152;28;20477;-47
2022/08/29 04:13:24;;;;;;;4.90;2.90;;;14.90;99.90;;;;;;5115206;28;20458;-59
2022/08/29 04:15:52;;;;;;;8.57;3.00;;;14.90;99.90;;;;;;5115308;28;20483;-61
2022/08/29 04:18:19;;;;;;;4.63;2.63;;;14.80;99.90;;;;;;5114935;28;20728;-60
2022/08/29 04:20:46;;;;;;;7.87;3.27;;;14.90;99.90;;;;;;5115161;28;20469;-50
2022/08/29 04:23:14;;;;;;;6.90;3.13;;;14.90;99.90;;;;;;5115088;28;20465;-49
2022/08/29 04:25:42;;;;;;;4.77;2.90;;;14.90;99.90;;;;;;5115091;28;20428;-54
2022/08/29 04:28:13;;;;;;;10.93;3.30;;;14.90;99.90;;;;;;5115033;28;20521;-57
2022/08/29 04:30:46;;;;;;;7.20;2.93;;;14.80;99.90;;;;;;5115003;28;20457;-49
2022/08/29 04:33:13;;;;;;;9.03;3.53;;;14.90;99.90;;;;;;5114253;28;20453;-58
2022/08/29 04:35:40;;;;;;;9.37;3.10;;;14.80;99.90;;;;;;5114807;28;20496;-56
2022/08/29 04:38:07;;;;;;;3.60;2.37;;;14.80;99.90;;;;;;5115534;28;20941;-56
2022/08/29 04:40:34;;;;;;;4.67;3.20;;;14.80;99.90;;;;;;5115530;28;20429;-46
2022/08/29 04:43:01;;;;;;;7.27;2.67;;;14.80;99.90;;;;;;5116066;28;20414;-45
2022/08/29 04:45:29;;;;;;;5.80;3.67;;;14.80;99.90;;;;;;5115815;28;20441;-56
2022/08/29 04:47:56;;;;;;;8.20;3.53;;;14.70;99.90;;;;;;5114926;28;20529;-56
2022/08/29 04:50:24;;;;;;;7.87;2.83;;;14.80;99.90;;;;;;5114220;28;20418;-58
2022/08/29 04:52:51;;;;;;;4.73;2.80;;;14.80;99.90;;;;;;5114168;28;20537;-53
2022/08/29 04:55:22;;;;;;;4.80;3.50;;;14.90;99.90;;;;;;5114001;28;20449;-49
2022/08/29 04:57:52;;;;;;;9.00;3.20;;;14.90;99.90;;;;;;5114305;28;20465;-54
2022/08/29 05:00:22;;;;;;;7.50;3.10;;;15.00;99.90;;;;;;5113850;28;20495;-56
2022/08/29 05:02:54;;;;;;;6.27;2.90;;;15.00;99.90;;;;;;5114568;28;20450;-59
2022/08/29 05:05:21;;;;;;;5.70;3.17;;;15.00;99.90;;;;;;5114158;28;20438;-52
2022/08/29 05:07:48;;;;;;;5.53;3.20;;;15.00;99.90;;;;;;5114024;28;20485;-47
2022/08/29 05:10:18;;;;;;;7.07;3.30;;;15.10;99.90;;;;;;5096942;28;20433;-59
2022/08/29 05:12:46;;;;;;;6.20;3.10;;;15.10;99.90;;;;;;5086021;28;20460;-62
2022/08/29 05:15:14;;;;;;;8.17;3.67;;;15.20;99.90;;;;;;5082130;28;20469;-62
2022/08/29 05:17:42;;;;;;;9.43;3.07;;;15.20;99.90;;;;;;5074502;28;20516;-63
2022/08/29 05:20:11;;;;;;;6.13;3.50;;;15.20;99.90;;;;;;5075039;28;20903;-62
2022/08/29 05:22:39;;;;;;;10.00;3.17;;;15.30;99.90;;;;;;5074075;28;20454;-62
2022/08/29 05:25:07;;;;;;;6.23;3.70;;;15.30;99.90;;;;;;5073816;28;20997;-63
2022/08/29 05:27:34;;;;;;;10.20;4.50;;;15.40;99.90;;;;;;5073966;28;20462;-61
2022/08/29 05:30:02;;;;;;;7.33;3.53;;;15.40;99.90;;;;;;5075341;28;20423;-62
2022/08/29 05:32:29;;;;;;;6.17;4.30;;;15.40;99.90;;;;;;5080361;28;20490;-58
2022/08/29 05:35:00;;;;;;;7.37;4.10;;;15.40;99.90;;;;;;5091629;28;20491;-58
2022/08/29 05:37:28;;;;;;;6.00;3.93;;;15.40;99.90;;;;;;5091014;28;20465;-54
2022/08/29 05:39:55;;;;;;;10.30;3.80;;;15.40;99.90;;;;;;5092003;28;20451;-55
2022/08/29 05:42:22;;;;;;;6.20;4.00;;;15.50;99.90;;;;;;5091590;28;20430;-52
2022/08/29 05:44:50;;;;;;;10.27;4.77;;;15.50;99.90;;;;;;5095500;28;20438;-50
2022/08/29 05:47:19;;;;;;;9.93;3.73;;;15.60;99.90;;;;;;5096555;28;20435;-53
2022/08/29 05:49:47;;;;;;;7.90;4.33;;;15.60;99.90;;;;;;5095667;28;20518;-61
2022/08/29 05:52:17;;;;;;;13.30;5.00;;;15.60;99.90;;;;;;5095763;28;20473;-57
2022/08/29 05:54:45;;;;;;;8.17;4.50;;;15.70;99.90;;;;;;5095230;28;20486;-51
2022/08/29 05:57:14;;;;;;;7.33;4.50;;;15.70;99.90;;;;;;5095655;28;20427;-51
2022/08/29 05:59:41;;;;;;;7.33;4.40;;;15.90;99.90;;;;;;5094484;28;20469;-58
2022/08/29 06:02:10;;;;;;;7.00;4.10;;;15.90;99.90;;;;;;5095080;28;20517;-60
2022/08/29 06:04:38;;;;;;;8.13;3.40;;;16.00;99.90;;;;;;5094838;28;20502;-63
2022/08/29 06:07:06;;;;;;;5.93;3.13;;;16.10;99.90;;;;;;5094421;28;20446;-59
2022/08/29 06:09:33;;;;;;;6.63;3.20;;;16.20;99.90;;;;;;5094288;28;20514;-53
2022/08/29 06:12:02;;;;;;;8.17;3.70;;;16.30;99.90;;;;;;5094232;28;20457;-58
2022/08/29 06:14:28;;;;;;;7.83;4.00;;;16.40;99.90;;;;;;5093655;28;20826;-62
2022/08/29 06:16:56;;;;;;;5.23;3.57;;;16.50;99.90;;;;;;5093660;28;20478;-60
2022/08/29 06:19:23;;;;;;;8.40;3.93;;;16.60;99.90;;;;;;5093128;28;20510;-59
2022/08/29 06:21:50;;;;;;;5.10;3.37;;;16.70;99.90;;;;;;5093462;28;20498;-62
2022/08/29 06:24:17;;;;;;;7.80;3.80;;;16.70;99.90;;;;;;5093369;28;20465;-62
2022/08/29 06:26:44;;;;;;;5.40;3.50;;;16.70;99.90;;;;;;5093610;28;20456;-52
2022/08/29 06:29:13;;;;;;;8.13;3.97;;;16.80;99.90;;;;;;5093477;28;20445;-55
2022/08/29 06:31:41;;;;;;;7.20;3.70;;;16.90;99.90;;;;;;5093319;28;20515;-58
2022/08/29 06:34:08;;;;;;;10.73;3.60;;;17.00;99.90;;;;;;5093048;28;20520;-60
2022/08/29 06:36:35;;;;;;;8.33;4.00;;;17.00;99.90;;;;;;5093125;28;20435;-60
2022/08/29 06:39:05;;;;;;;9.50;3.87;;;17.00;99.90;;;;;;5093282;28;20469;-59
2022/08/29 06:41:32;;;;;;;6.83;3.70;;;17.10;99.90;;;;;;5094211;28;20476;-62
2022/08/29 06:44:00;;;;;;;15.40;4.50;;;17.10;99.90;;;;;;5098910;28;20433;-61
2022/08/29 06:46:31;;;;;;;6.03;3.50;;;17.10;99.90;;;;;;5098142;28;20765;-59
2022/08/29 06:48:59;;;;;;;13.30;4.47;;;17.10;99.90;;;;;;5098046;28;20540;-59
2022/08/29 06:51:27;;;;;;;10.30;4.33;;;17.00;99.90;;;;;;5098355;28;20449;-61
2022/08/29 06:53:53;;;;;;;7.10;3.70;;;17.00;99.90;;;;;;5099194;28;20496;-54
2022/08/29 06:56:20;;;;;;;5.10;3.60;;;17.00;99.90;;;;;;5099427;28;20457;-63
2022/08/29 06:58:47;;;;;;;7.43;3.70;;;17.10;99.90;;;;;;5100076;28;20441;-62
2022/08/29 07:01:16;;;;;;;7.17;3.77;;;17.00;99.90;;;;;;5100150;28;20532;-57
2022/08/29 07:03:44;;;;;;;5.50;4.13;;;17.10;99.90;;;;;;5100321;28;20518;-59
2022/08/29 07:06:12;;;;;;;11.87;4.70;;;17.10;99.90;;;;;;5101764;28;20461;-65
2022/08/29 07:08:40;;;;;;;12.77;4.90;;;17.20;99.90;;;;;;5097608;28;20481;-54
2022/08/29 07:11:06;;;;;;;8.60;3.63;;;17.30;99.90;;;;;;5093461;28;20461;-57
2022/08/29 07:13:34;;;;;;;9.13;3.73;;;17.30;99.90;;;;;;5092223;28;20532;-61
2022/08/29 07:16:01;;;;;;;9.27;3.97;;;17.40;99.90;;;;;;5102356;28;20454;-61
2022/08/29 07:18:28;;;;;;;4.57;4.07;;;17.40;99.90;;;;;;5092835;28;20792;-59
2022/08/29 07:20:56;;;;;;;4.90;3.63;;;17.40;99.90;;;;;;5099586;28;20442;-62
2022/08/29 07:23:23;;;;;;;10.50;4.00;;;17.40;99.90;;;;;;5099223;28;20457;-57
2022/08/29 07:25:50;;;;;;;8.70;3.73;;;17.50;99.90;;;;;;5097903;28;20461;-51
2022/08/29 07:28:17;;;;;;;8.40;3.97;;;17.50;99.90;;;;;;5097284;28;20921;-59
2022/08/29 07:30:43;;;;;;;6.83;4.27;;;17.50;99.90;;;;;;5096812;28;20487;-57
2022/08/29 07:33:10;;;;;;;8.33;3.53;;;17.50;99.90;;;;;;5097825;28;20465;-64
2022/08/29 07:35:37;;;;;;;13.83;3.70;;;17.40;99.90;;;;;;5095339;28;20831;-62
2022/08/29 07:38:06;;;;;;;7.40;3.70;;;17.40;99.90;;;;;;5095602;28;20531;-62
2022/08/29 07:40:32;;;;;;;6.93;3.80;;;17.40;99.90;;;;;;5095420;28;20444;-54
2022/08/29 07:42:59;;;;;;;6.13;4.20;;;17.40;99.90;;;;;;5095681;28;20437;-62
2022/08/29 07:45:26;;;;;;;8.43;3.83;;;17.40;99.90;;;;;;5100108;28;21009;-56
2022/08/29 07:47:53;;;;;;;9.73;3.87;;;17.40;99.90;;;;;;5096937;28;21029;-59
2022/08/29 07:50:20;;;;;;;6.60;3.40;;;17.40;99.90;;;;;;5098067;28;20456;-61
2022/08/29 07:52:47;;;;;;;6.70;3.90;;;17.40;99.90;;;;;;5094589;28;20453;-62
2022/08/29 07:55:17;;;;;;;9.53;4.60;;;17.40;99.90;;;;;;5090807;28;20488;-35
2022/08/29 07:57:47;;;;;;;5.00;3.30;;;17.50;99.90;;;;;;5110555;28;20443;-55
2022/08/29 08:00:14;;;;;;;8.90;6.63;;;17.50;99.90;;;;;;5095478;28;20433;-62
2022/08/29 08:02:41;;;;;;;7.50;3.60;;;17.50;99.90;;;;;;5092498;28;20444;-62
2022/08/29 08:05:08;;;;;;;9.50;3.47;;;17.60;99.90;;;;;;5084967;28;20442;-61
2022/08/29 08:07:35;;;;;;;13.37;3.80;;;17.70;99.90;;;;;;5085116;28;20512;-62
2022/08/29 08:10:03;;;;;;;7.13;3.97;;;17.70;99.90;;;;;;5101583;28;20505;-61
2022/08/29 08:12:32;;;;;;;9.10;4.10;;;17.80;99.90;;;;;;5097488;28;20449;-56
2022/08/29 08:14:59;;;;;;;6.97;3.53;;;17.80;99.90;;;;;;5096189;28;20787;-60
2022/08/29 08:17:26;;;;;;;9.13;3.20;;;17.80;99.90;;;;;;5096762;28;20981;-63
2022/08/29 08:19:53;;;;;;;6.33;4.17;;;17.80;99.90;;;;;;5101662;28;20445;-63
2022/08/29 08:22:20;;;;;;;6.20;4.20;;;17.80;99.90;;;;;;5100818;28;20448;-63
2022/08/29 08:24:47;;;;;;;5.70;4.03;;;17.80;99.90;;;;;;5102062;28;20448;-61
2022/08/29 08:27:14;;;;;;;6.53;3.30;;;17.90;99.90;;;;;;5097785;28;20457;-60
2022/08/29 08:29:43;;;;;;;7.73;3.97;;;17.90;99.90;;;;;;5097652;28;21025;-61
2022/08/29 08:32:09;;;;;;;6.90;3.57;;;18.00;99.90;;;;;;5097753;28;20491;-63
2022/08/29 08:34:36;;;;;;;7.33;4.00;;;18.10;99.90;;;;;;5098233;28;20481;-63
2022/08/29 08:37:07;;;;;;;6.50;4.30;;;18.20;99.90;;;;;;5097422;28;20737;-65
2022/08/29 08:39:34;;;;;;;10.47;4.57;;;18.20;99.90;;;;;;5097485;28;20877;-66
2022/08/29 08:42:07;;;;;;;11.47;4.43;;;18.20;99.90;;;;;;5098094;28;20471;-64
2022/08/29 08:45:04;;;;;;;7.40;4.47;;;18.30;99.90;;;;;;5097740;28;20438;-59
2022/08/29 08:47:34;;;;;;;7.83;4.00;;;18.20;99.90;;;;;;5078029;28;20407;-65
2022/08/29 08:50:05;;;;;;;8.33;3.60;;;18.30;99.90;;;;;;5083845;28;20468;-54
2022/08/29 08:52:42;;;;;;;15.13;4.40;;;18.30;99.90;;;;;;5101260;28;20574;-59
2022/08/29 08:55:18;;;;;;;6.47;3.93;;;18.30;99.90;;;;;;5096119;28;20492;-62
2022/08/29 08:57:52;;;;;;;7.30;4.40;;;18.30;99.90;;;;;;5091073;28;20540;-62
2022/08/29 09:00:20;;;;;;;6.60;4.03;;;18.30;99.90;;;;;;5095147;28;20467;-64
2022/08/29 09:02:57;;;;;;;5.50;4.10;;;18.40;99.90;;;;;;5094268;28;20534;-61
2022/08/29 09:05:34;;;;;;;8.87;3.87;;;18.40;99.90;;;;;;5094085;28;20989;-64
2022/08/29 09:08:10;;;;;;;5.00;4.23;;;18.50;99.90;;;;;;5094539;28;20461;-59
2022/08/29 09:10:46;;;;;;;5.20;3.57;;;18.50;99.90;;;;;;5094328;28;20717;-61
2022/08/29 09:13:23;;;;;;;11.63;4.40;;;18.60;99.90;;;;;;5094188;28;20919;-58
2022/08/29 09:15:54;;;;;;;10.07;4.47;;;18.70;99.90;;;;;;5095058;28;20544;-61
2022/08/29 09:18:27;;;;;;;5.97;4.03;;;18.70;99.90;;;;;;5099350;28;20468;-62
2022/08/29 09:20:55;;;;;;;6.40;4.27;;;18.70;99.90;;;;;;5101612;28;20514;-60
2022/08/29 09:23:27;;;;;;;6.10;4.20;;;18.80;99.90;;;;;;5101171;28;20477;-63
2022/08/29 09:25:54;;;;;;;7.43;4.33;;;19.10;99.90;;;;;;5100653;28;20532;-60
2022/08/29 09:28:21;;;;;;;8.70;4.67;;;19.40;99.90;;;;;;5101024;28;20442;-63
2022/08/29 09:31:27;;;;;;;5.37;3.00;;;19.70;99.90;;;;;;5102539;28;20926;-61
2022/08/29 09:33:57;;;;;;;5.93;3.37;;;20.00;99.90;;;;;;5102900;28;20545;-60
2022/08/29 09:36:40;;;;;;;11.03;4.37;;;20.20;99.90;;;;;;5100955;28;20434;-63
2022/08/29 09:39:15;;;;;;;7.13;4.30;;;20.10;99.90;;;;;;5100653;28;20969;-61
2022/08/29 09:41:42;;;;;;;6.37;3.50;;;20.10;99.90;;;;;;5101137;28;20472;-56
2022/08/29 09:44:13;;;;;;;7.97;4.70;;;20.20;99.90;;;;;;5100517;28;20932;-57
2022/08/29 09:46:42;;;;;;;5.83;4.40;;;20.30;99.90;;;;;;5080737;28;20483;-57
2022/08/29 09:49:16;;;;;;;10.00;4.13;;;20.40;99.90;;;;;;5080405;28;20454;-61
2022/08/29 09:51:48;;;;;;;6.17;4.03;;;20.30;99.90;;;;;;5080767;28;20442;-63
2022/08/29 09:54:18;;;;;;;7.87;4.20;;;20.30;99.90;;;;;;5091091;28;20460;-61
2022/08/29 09:56:55;;;;;;;7.87;5.47;;;20.10;99.90;;;;;;5102258;28;20433;-63
2022/08/29 09:59:28;;;;;;;5.97;3.60;;;20.00;99.90;;;;;;5103188;28;20461;-60
2022/08/29 10:02:18;;;;;;;6.10;4.43;;;19.80;99.90;;;;;;5101294;28;20471;-63
2022/08/29 10:04:47;;;;;;;7.23;4.07;;;19.70;99.90;;;;;;5101227;28;20425;-59
2022/08/29 10:07:18;;;;;;;5.23;3.80;;;19.60;99.90;;;;;;5101720;28;20433;-66
2022/08/29 10:09:59;;;;;;;9.67;4.43;;;19.50;99.90;;;;;;5102397;28;20877;-62
2022/08/29 10:12:33;;;;;;;6.57;4.00;;;19.50;99.90;;;;;;5124388;28;20463;-38
2022/08/29 10:15:04;;;;;;;7.03;3.83;;;19.40;99.90;;;;;;5121731;28;20440;-61
2022/08/29 10:20:27;;;;;;;7.73;4.00;;;19.40;99.90;;;;;;5087676;28;20431;-62
2022/08/29 10:23:01;;;;;;;6.20;3.47;;;19.50;99.90;;;;;;5100753;28;20440;-66
2022/08/29 10:25:35;;;;;;;5.40;3.70;;;19.50;99.90;;;;;;5100942;28;20853;-62
2022/08/29 10:33:34;;;;;;;4.50;3.30;;;19.90;99.90;;;;;;5582978;22;20487;-65
2022/08/29 10:36:08;;;;;;;8.53;4.20;;;19.90;99.90;;;;;;5107514;28;20576;-58
2022/08/29 10:38:45;;;;;;;7.03;3.80;;;19.90;99.90;;;;;;5117106;28;20441;-67
2022/08/29 10:41:26;;;;;;;12.70;4.03;;;20.00;99.90;;;;;;5122258;28;20950;-64
2022/08/29 10:44:00;;;;;;;6.53;4.83;;;20.10;99.90;;;;;;5121354;28;20833;-64
2022/08/29 10:46:51;;;;;;;6.80;3.60;;;20.20;99.90;;;;;;5120937;28;20467;-61
2022/08/29 10:49:27;;;;;;;5.10;4.20;;;20.20;99.90;;;;;;5121155;28;20475;-62
2022/08/29 10:52:04;;;;;;;6.47;4.03;;;20.30;99.90;;;;;;5121484;28;20830;-64
2022/08/29 10:54:41;;;;;;;7.10;4.43;;;20.50;99.90;;;;;;5120960;28;20428;-64
2022/08/29 10:57:14;;;;;;;4.70;3.33;;;20.80;99.90;;;;;;5121022;28;20429;-65
2022/08/29 10:59:55;;;;;;;6.90;3.53;;;21.40;99.90;;;;;;5120740;28;20518;-57
2022/08/29 11:02:29;;;;;;;7.50;3.13;;;21.70;99.90;;;;;;5119980;28;20428;-63
2022/08/29 11:05:02;;;;;;;6.50;3.77;;;22.20;99.90;;;;;;5119781;28;20524;-65
2022/08/29 11:07:34;;;;;;;9.60;3.30;;;22.70;99.90;;;;;;5119931;28;20462;-59
2022/08/29 11:10:06;;;;;;;7.00;4.10;;;22.90;99.90;;;;;;5119345;28;20444;-59
2022/08/29 11:12:43;;;;;;;11.23;4.10;;;22.90;99.90;;;;;;5120394;28;20924;-61
2022/08/29 11:15:19;;;;;;;6.23;3.93;;;22.70;99.90;;;;;;5121159;28;20496;-61
2022/08/29 11:17:51;;;;;;;7.03;3.50;;;22.40;99.90;;;;;;5120796;28;20421;-60
2022/08/29 11:20:25;;;;;;;4.40;3.03;;;22.40;99.90;;;;;;5120220;28;20460;-57
2022/08/29 11:22:57;;;;;;;4.90;3.50;;;22.10;99.90;;;;;;5120099;28;20947;-62
2022/08/29 11:25:24;;;;;;;4.60;3.40;;;21.90;99.90;;;;;;5120016;28;20429;-57
2022/08/29 11:27:58;;;;;;;5.23;3.67;;;21.70;99.90;;;;;;5118901;28;20441;-52
2022/08/29 11:30:31;;;;;;;6.00;4.90;;;21.60;99.90;;;;;;5118858;28;20536;-56
2022/08/29 11:33:06;;;;;;;7.53;3.73;;;21.40;99.90;;;;;;5120342;28;20457;-60
2022/08/29 11:35:45;;;;;;;5.70;3.97;;;21.30;99.90;;;;;;5119406;28;20456;-62
2022/08/29 11:38:44;;;;;;;5.87;3.90;;;21.20;99.90;;;;;;5099608;28;20503;-61
2022/08/29 11:41:20;;;;;;;4.57;3.60;;;21.20;99.90;;;;;;5099067;28;20437;-59
2022/08/29 11:43:52;;;;;;;5.97;4.60;;;21.30;99.90;;;;;;5099814;28;20849;-61
2022/08/29 11:46:37;;;;;;;4.27;3.50;;;21.30;99.90;;;;;;5099163;28;20499;-61
2022/08/29 11:49:32;;;;;;;5.57;4.30;;;21.50;99.90;;;;;;5098724;28;20471;-62
2022/08/29 11:52:16;;;;;;;6.10;4.27;;;21.60;99.90;;;;;;5099147;28;20456;-62
2022/08/29 11:54:52;;;;;;;7.23;4.07;;;21.70;99.90;;;;;;5098716;28;20494;-62
2022/08/29 11:57:57;;;;;;;3.80;3.27;;;21.70;99.90;;;;;;5099663;28;20426;-66
2022/08/29 12:00:47;;;;;;;6.03;3.67;;;21.90;99.90;;;;;;5038191;28;20551;-60
2022/08/29 12:03:53;;;;;;;5.07;3.50;;;22.10;99.90;;;;;;5037148;28;20444;-62
2022/08/29 12:06:41;;;;;;;5.83;3.80;;;22.30;99.90;;;;;;5092871;28;20436;-62
2022/08/29 12:09:35;;;;;;;5.90;3.93;;;22.50;99.90;;;;;;5099107;28;20437;-56
2022/08/29 12:12:17;;;;;;;10.80;3.73;;;22.50;99.90;;;;;;5098832;28;20501;-61
2022/08/29 12:14:46;;;;;;;5.60;3.87;;;22.50;99.90;;;;;;5098570;28;20476;-64
2022/08/29 12:17:44;;;;;;;4.13;3.00;;;22.50;99.90;;;;;;5097652;28;20473;-58
2022/08/29 12:20:16;;;;;;;10.00;2.87;;;22.60;99.90;;;;;;5098120;28;20525;-61
2022/08/29 12:22:55;;;;;;;4.90;3.40;;;22.70;99.90;;;;;;5098884;28;20767;-58
2022/08/29 12:25:49;;;;;;;4.53;3.40;;;22.70;99.90;;;;;;5097639;28;20508;-59
2022/08/29 12:28:33;;;;;;;6.30;4.90;;;22.80;99.90;;;;;;5098912;28;20474;-58
2022/08/29 12:31:09;;;;;;;6.40;4.17;;;22.80;99.90;;;;;;5098572;28;20552;-59
2022/08/29 12:33:48;;;;;;;5.17;3.00;;;22.70;99.90;;;;;;5098425;28;20426;-60
2022/08/29 12:36:28;;;;;;;6.10;3.73;;;22.70;99.90;;;;;;5098567;28;20541;-59
2022/08/29 12:39:11;;;;;;;7.60;4.10;;;22.60;99.90;;;;;;5098020;28;20552;-61
2022/08/29 12:41:52;;;;;;;5.73;3.30;;;22.50;99.90;;;;;;5098811;28;20465;-63
2022/08/29 12:44:24;;;;;;;4.93;3.70;;;22.50;99.90;;;;;;5097290;28;20430;-61
2022/08/29 12:46:54;;;;;;;5.37;3.63;;;22.50;99.90;;;;;;5099321;28;20981;-62
2022/08/29 12:49:25;;;;;;;4.43;3.10;;;22.50;99.90;;;;;;5098749;28;20537;-62
2022/08/29 12:51:57;;;;;;;4.00;3.60;;;22.50;99.90;;;;;;5098229;28;20430;-62
2022/08/29 12:54:33;;;;;;;3.37;3.07;;;22.60;99.90;;;;;;5097627;28;20497;-61
2022/08/29 12:57:02;;;;;;;3.97;3.57;;;22.60;99.90;;;;;;5097991;28;21018;-61
2022/08/29 12:59:29;;;;;;;7.20;4.10;;;22.60;99.90;;;;;;5098042;28;20460;-60
2022/08/29 13:01:58;;;;;;;8.40;4.20;;;22.60;99.90;;;;;;5097816;28;20536;-61
2022/08/29 13:04:31;;;;;;;4.70;3.70;;;22.60;99.90;;;;;;5098036;28;20462;-59
2022/08/29 13:06:59;;;;;;;4.20;3.80;;;22.70;99.90;;;;;;5098276;28;20449;-60
2022/08/29 13:09:28;;;;;;;6.03;3.60;;;22.70;99.90;;;;;;5097553;28;20547;-61
2022/08/29 13:12:15;;;;;;;5.93;3.93;;;22.70;99.90;;;;;;5097480;28;20517;-60
2022/08/29 13:14:57;;;;;;;4.93;3.90;;;22.60;99.90;;;;;;5097689;28;20451;-59
2022/08/29 13:17:26;;;;;;;6.80;4.63;;;22.60;99.90;;;;;;5097983;28;20849;-61
2022/08/29 13:20:30;;;;;;;4.57;3.40;;;22.50;99.90;;;;;;5097890;28;20978;-61